createdAt,value
2024-01-25T00:00:05.595Z,32.25
2024-01-25T00:01:08.247Z,32.15
2024-01-25T00:02:17.691Z,36.90
2024-01-25T00:04:23.397Z,30.30
2024-01-25T00:05:26.328Z,36.80
2024-01-25T00:07:31.818Z,37.13
2024-01-25T00:08:34.185Z,34.22
2024-01-25T00:09:37.038Z,39.25
2024-01-25T00:10:39.441Z,34.58
2024-01-25T00:11:42.177Z,34.90
2024-01-25T00:12:44.720Z,33.83
2024-01-25T00:13:47.120Z,35.38
2024-01-25T00:14:50.151Z,38.65
2024-01-25T00:15:53.720Z,33.53
2024-01-25T00:16:56.295Z,38.70
2024-01-25T00:17:58.904Z,34.83
2024-01-25T00:19:01.613Z,35.70
2024-01-25T00:20:06.304Z,36.13
2024-01-25T00:21:09.060Z,33.90
2024-01-25T00:22:11.521Z,30.83
2024-01-25T00:23:14.653Z,36.75
2024-01-25T00:24:17.452Z,36.35
2024-01-25T00:25:20.181Z,33.38
2024-01-25T00:26:23.004Z,36.03
2024-01-25T00:27:25.981Z,37.90
2024-01-25T00:28:29.788Z,36.70
2024-01-25T00:29:32.885Z,30.30
2024-01-25T00:30:35.406Z,34.50
2024-01-25T00:31:37.829Z,34.75
2024-01-25T00:33:43.179Z,27.92
2024-01-25T00:34:46.010Z,34.60
2024-01-25T00:35:49.692Z,32.78
2024-01-25T00:36:53.066Z,33.28
2024-01-25T00:37:55.928Z,34.42
2024-01-25T00:38:58.685Z,31.67
2024-01-25T00:40:01.450Z,33.92
2024-01-25T00:41:05.460Z,32.85
2024-01-25T00:42:08.365Z,30.13
2024-01-25T00:43:11.695Z,29.85
2024-01-25T00:44:14.545Z,31.05
2024-01-25T00:45:17.382Z,32.80
2024-01-25T00:46:20.172Z,34.60
2024-01-25T00:48:25.876Z,30.02
2024-01-25T00:49:29.538Z,33.50
2024-01-25T00:51:35.249Z,29.67
2024-01-25T00:53:40.867Z,27.67
2024-01-25T00:54:43.882Z,28.77
2024-01-25T00:55:47.060Z,28.23
2024-01-25T00:56:52.319Z,35.65
2024-01-25T00:57:56.086Z,33.20
2024-01-25T00:58:58.969Z,30.30
2024-01-25T01:00:02.073Z,33.25
2024-01-25T01:01:05.030Z,30.75
2024-01-25T01:02:12.888Z,34.50
2024-01-25T01:03:16.020Z,33.50
2024-01-25T01:05:21.597Z,27.48
2024-01-25T01:06:25.112Z,29.73
2024-01-25T01:07:28.808Z,32.45
2024-01-25T01:08:31.731Z,30.13
2024-01-25T01:10:37.572Z,27.50
2024-01-25T01:11:40.289Z,31.67
2024-01-25T01:12:43.036Z,33.60
2024-01-25T01:13:50.655Z,29.23
2024-01-25T01:14:53.498Z,28.40
2024-01-25T01:15:56.516Z,30.02
2024-01-25T01:16:59.202Z,25.80
2024-01-25T01:18:01.828Z,30.05
2024-01-25T01:19:11.546Z,26.85
2024-01-25T01:20:13.986Z,27.35
2024-01-25T01:21:18.769Z,32.17
2024-01-25T01:22:21.513Z,29.73
2024-01-25T01:23:24.394Z,28.17
2024-01-25T01:24:26.823Z,31.65
2024-01-25T01:25:29.335Z,35.50
2024-01-25T01:26:31.809Z,28.63
2024-01-25T01:27:34.724Z,31.40
2024-01-25T01:28:37.171Z,30.70
2024-01-25T01:29:39.946Z,26.38
2024-01-25T01:30:43.384Z,27.25
2024-01-25T01:31:47.554Z,27.77
2024-01-25T01:32:50.273Z,32.72
2024-01-25T01:33:54.335Z,32.00
2024-01-25T01:35:59.813Z,27.83
2024-01-25T01:37:02.423Z,28.92
2024-01-25T01:38:05.110Z,27.02
2024-01-25T01:39:07.693Z,28.52
2024-01-25T01:40:11.655Z,28.63
2024-01-25T01:41:14.399Z,26.88
2024-01-25T01:42:17.026Z,23.90
2024-01-25T01:43:21.546Z,32.20
2024-01-25T01:44:24.692Z,25.33
2024-01-25T01:45:27.350Z,29.60
2024-01-25T01:46:39.143Z,25.67
2024-01-25T01:47:42.922Z,27.60
2024-01-25T01:48:46.242Z,23.98
2024-01-25T01:49:49.196Z,25.75
2024-01-25T01:50:52.379Z,24.52
2024-01-25T01:52:57.836Z,26.35
2024-01-25T01:54:02.561Z,25.75
2024-01-25T01:55:05.785Z,25.10
2024-01-25T01:56:09.290Z,27.33
2024-01-25T01:57:12.375Z,31.67
2024-01-25T01:58:15.265Z,29.33
2024-01-25T01:59:18.501Z,27.02
2024-01-25T02:00:22.448Z,27.98
2024-01-25T02:01:26.300Z,27.90
2024-01-25T02:02:28.908Z,24.13
2024-01-25T02:03:31.596Z,27.38
2024-01-25T02:04:34.236Z,26.15
2024-01-25T02:05:37.347Z,26.02
2024-01-25T02:06:40.634Z,23.20
2024-01-25T02:07:43.817Z,26.75
2024-01-25T02:08:52.280Z,25.58
2024-01-25T02:09:55.810Z,25.65
2024-01-25T02:10:58.511Z,25.92
2024-01-25T02:12:02.933Z,25.17
2024-01-25T02:13:05.761Z,25.02
2024-01-25T02:14:12.273Z,29.45
2024-01-25T02:15:15.011Z,24.25
2024-01-25T02:16:17.720Z,27.98
2024-01-25T02:17:20.311Z,26.38
2024-01-25T02:18:23.628Z,26.00
2024-01-25T02:20:28.653Z,26.75
2024-01-25T02:21:31.492Z,22.10
2024-01-25T02:22:34.733Z,25.98
2024-01-25T02:23:37.289Z,28.30
2024-01-25T02:24:39.754Z,27.38
2024-01-25T02:25:42.412Z,28.42
2024-01-25T02:26:45.446Z,24.05
2024-01-25T02:27:47.747Z,24.45
2024-01-25T02:28:50.357Z,24.02
2024-01-25T02:29:53.021Z,24.63
2024-01-25T02:30:56.355Z,24.17
2024-01-25T02:31:58.993Z,26.85
2024-01-25T02:33:01.475Z,27.88
2024-01-25T02:34:04.076Z,23.77
2024-01-25T02:35:07.436Z,26.85
2024-01-25T02:37:13.709Z,18.63
2024-01-25T02:38:16.613Z,20.80
2024-01-25T02:39:19.657Z,22.42
2024-01-25T02:40:22.434Z,21.30
2024-01-25T02:41:25.020Z,23.05
2024-01-25T02:42:27.909Z,21.98
2024-01-25T02:43:30.617Z,24.73
2024-01-25T02:44:32.986Z,21.38
2024-01-25T02:45:35.493Z,22.60
2024-01-25T02:46:39.418Z,28.40
2024-01-25T02:47:42.642Z,25.13
2024-01-25T02:48:45.385Z,28.02
2024-01-25T02:49:48.078Z,21.13
2024-01-25T02:50:50.605Z,22.55
2024-01-25T02:52:56.279Z,18.52
2024-01-25T02:53:58.599Z,21.38
2024-01-25T02:55:01.195Z,18.42
2024-01-25T02:57:06.829Z,24.27
2024-01-25T02:59:11.388Z,20.10
2024-01-25T03:00:14.870Z,24.92
2024-01-25T03:01:17.331Z,22.88
2024-01-25T03:02:20.782Z,25.20
2024-01-25T03:03:25.211Z,27.92
2024-01-25T03:04:28.423Z,26.23
2024-01-25T03:05:31.144Z,26.40
2024-01-25T03:06:34.015Z,25.52
2024-01-25T03:07:36.543Z,24.48
2024-01-25T03:08:39.776Z,25.38
2024-01-25T03:09:42.433Z,27.55
2024-01-25T03:10:44.889Z,31.30
2024-01-25T03:11:47.219Z,27.00
2024-01-25T03:12:50.115Z,27.23
2024-01-25T03:13:53.288Z,28.90
2024-01-25T03:14:55.989Z,27.80
2024-01-25T03:15:58.507Z,24.52
2024-01-25T03:17:01.539Z,29.23
2024-01-25T03:18:04.804Z,31.55
2024-01-25T03:19:07.255Z,28.67
2024-01-25T03:20:10.274Z,25.63
2024-01-25T03:21:13.196Z,27.63
2024-01-25T03:22:15.742Z,27.83
2024-01-25T03:23:18.937Z,26.10
2024-01-25T03:24:25.731Z,26.35
2024-01-25T03:25:28.721Z,26.85
2024-01-25T03:26:31.429Z,23.80
2024-01-25T03:27:33.872Z,28.15
2024-01-25T03:28:37.439Z,25.40
2024-01-25T03:29:43.554Z,31.30
2024-01-25T03:30:46.040Z,28.90
2024-01-25T03:31:48.652Z,27.90
2024-01-25T03:32:51.411Z,29.20
2024-01-25T03:33:55.400Z,27.98
2024-01-25T03:34:57.964Z,24.42
2024-01-25T03:36:04.771Z,28.25
2024-01-25T03:37:08.725Z,30.77
2024-01-25T03:38:12.049Z,29.58
2024-01-25T03:39:14.629Z,34.70
2024-01-25T03:40:17.019Z,31.48
2024-01-25T03:41:19.469Z,31.50
2024-01-25T03:42:22.457Z,32.90
2024-01-25T03:43:27.549Z,31.10
2024-01-25T03:44:35.868Z,29.58
2024-01-25T03:45:38.281Z,32.05
2024-01-25T03:46:41.105Z,31.67
2024-01-25T03:47:43.447Z,28.90
2024-01-25T03:48:46.049Z,30.90
2024-01-25T03:49:49.322Z,37.88
2024-01-25T03:50:52.353Z,36.25
2024-01-25T03:51:54.855Z,32.53
2024-01-25T03:52:57.329Z,32.72
2024-01-25T03:53:59.761Z,34.65
2024-01-25T03:56:05.693Z,29.45
2024-01-25T03:57:08.467Z,34.35
2024-01-25T03:58:11.046Z,35.28
2024-01-25T03:59:15.248Z,29.33
2024-01-25T04:00:17.930Z,32.92
2024-01-25T04:01:20.564Z,35.53
2024-01-25T04:02:23.218Z,30.83
2024-01-25T04:04:28.420Z,35.45
2024-01-25T04:05:31.159Z,32.28
2024-01-25T04:06:33.605Z,33.03
2024-01-25T04:08:39.411Z,27.05
2024-01-25T04:09:41.862Z,34.25
2024-01-25T04:10:44.414Z,32.78
2024-01-25T04:11:47.398Z,33.67
2024-01-25T04:12:49.817Z,36.10
2024-01-25T04:13:52.073Z,37.13
2024-01-25T04:14:54.730Z,36.17
2024-01-25T04:15:57.708Z,30.08
2024-01-25T04:17:00.768Z,36.17
2024-01-25T04:19:05.562Z,27.25
2024-01-25T04:21:11.311Z,27.52
2024-01-25T04:22:13.951Z,40.15
2024-01-25T04:23:16.412Z,61.30
2024-01-25T04:24:19.346Z,56.92
2024-01-25T04:25:22.494Z,47.20
2024-01-25T04:26:25.206Z,47.55
2024-01-25T04:27:27.951Z,39.70
2024-01-25T04:29:33.100Z,33.03
2024-01-25T04:30:35.406Z,34.42
2024-01-25T04:31:45.575Z,38.75
2024-01-25T04:32:49.275Z,40.80
2024-01-25T04:33:52.447Z,34.65
2024-01-25T04:34:55.495Z,57.58
2024-01-25T04:35:57.928Z,38.58
2024-01-25T04:37:00.703Z,37.03
2024-01-25T04:38:03.234Z,32.55
2024-01-25T04:39:05.913Z,35.80
2024-01-25T04:40:09.431Z,38.67
2024-01-25T04:41:12.425Z,96.30
2024-01-25T04:42:14.921Z,37.47
2024-01-25T04:43:17.468Z,40.42
2024-01-25T04:44:20.177Z,37.08
2024-01-25T04:46:25.643Z,30.83
2024-01-25T04:47:28.062Z,30.40
2024-01-25T04:48:31.615Z,30.20
2024-01-25T04:49:34.892Z,27.08
2024-01-25T04:50:37.498Z,27.42
2024-01-25T04:51:39.756Z,33.13
2024-01-25T04:52:41.914Z,33.92
2024-01-25T04:53:44.865Z,31.50
2024-01-25T04:54:46.937Z,32.67
2024-01-25T04:55:49.143Z,28.40
2024-01-25T04:56:51.232Z,26.60
2024-01-25T04:57:54.946Z,31.70
2024-01-25T04:58:57.133Z,32.22
2024-01-25T04:59:59.154Z,23.65
2024-01-25T05:01:01.612Z,28.35
2024-01-25T05:03:07.280Z,37.22
2024-01-25T05:04:09.807Z,33.33
2024-01-25T05:05:12.442Z,35.08
2024-01-25T05:06:15.360Z,34.50
2024-01-25T05:07:18.050Z,28.35
2024-01-25T05:08:20.555Z,32.53
2024-01-25T05:09:23.356Z,30.73
2024-01-25T05:10:27.182Z,33.28
2024-01-25T05:11:29.896Z,26.42
2024-01-25T05:12:32.688Z,31.60
2024-01-25T05:13:35.443Z,32.72
2024-01-25T05:14:38.274Z,29.90
2024-01-25T05:15:41.004Z,27.48
2024-01-25T05:16:43.536Z,31.75
2024-01-25T05:17:46.190Z,27.35
2024-01-25T05:19:51.742Z,24.48
2024-01-25T05:20:56.447Z,27.08
2024-01-25T05:21:59.278Z,49.10
2024-01-25T05:23:03.039Z,68.53
2024-01-25T05:24:05.720Z,77.70
2024-01-25T05:25:09.782Z,67.22
2024-01-25T05:26:12.612Z,44.05
2024-01-25T05:27:15.391Z,38.72
2024-01-25T05:28:17.884Z,37.15
2024-01-25T05:29:20.290Z,35.08
2024-01-25T05:30:23.378Z,33.38
2024-01-25T05:31:26.189Z,33.53
2024-01-25T05:32:28.809Z,32.35
2024-01-25T05:33:31.560Z,30.88
2024-01-25T05:34:35.165Z,27.73
2024-01-25T05:35:38.391Z,27.15
2024-01-25T05:36:40.781Z,27.90
2024-01-25T05:37:43.566Z,28.92
2024-01-25T05:39:48.913Z,23.77
2024-01-25T05:40:51.295Z,30.17
2024-01-25T05:41:53.626Z,27.92
2024-01-25T05:42:56.661Z,33.33
2024-01-25T05:43:59.699Z,27.15
2024-01-25T05:45:02.793Z,31.80
2024-01-25T05:46:05.570Z,33.17
2024-01-25T05:47:08.548Z,33.47
2024-01-25T05:48:11.546Z,32.17
2024-01-25T05:49:14.226Z,32.85
2024-01-25T05:50:16.972Z,57.97
2024-01-25T05:52:23.549Z,107.63
2024-01-25T05:53:27.077Z,69.43
2024-01-25T05:54:29.464Z,86.82
2024-01-25T05:55:32.287Z,63.92
2024-01-25T05:56:35.595Z,44.30
2024-01-25T05:58:40.608Z,29.33
2024-01-25T05:59:42.948Z,31.48
2024-01-25T06:00:45.994Z,26.08
2024-01-25T06:01:48.544Z,25.80
2024-01-25T06:02:51.037Z,26.85
2024-01-25T06:04:59.808Z,26.67
2024-01-25T06:06:02.580Z,26.60
2024-01-25T06:07:05.587Z,27.48
2024-01-25T06:08:08.382Z,28.13
2024-01-25T06:09:13.750Z,28.63
2024-01-25T06:10:17.094Z,26.67
2024-01-25T06:11:19.640Z,26.83
2024-01-25T06:12:22.440Z,30.80
2024-01-25T06:13:25.649Z,31.30
2024-01-25T06:14:28.240Z,27.98
2024-01-25T06:15:30.707Z,29.23
2024-01-25T06:16:33.341Z,34.92
2024-01-25T06:17:37.600Z,29.38
2024-01-25T06:18:40.254Z,33.90
2024-01-25T06:19:43.203Z,30.45
2024-01-25T06:21:48.528Z,27.25
2024-01-25T06:22:51.006Z,30.67
2024-01-25T06:23:53.735Z,33.38
2024-01-25T06:24:56.671Z,39.88
2024-01-25T06:25:59.497Z,34.92
2024-01-25T06:27:01.983Z,32.25
2024-01-25T06:28:05.300Z,31.15
2024-01-25T06:29:07.999Z,31.58
2024-01-25T06:30:11.256Z,37.67
2024-01-25T06:32:26.041Z,27.60
2024-01-25T06:33:29.662Z,31.00
2024-01-25T06:34:32.810Z,34.03
2024-01-25T06:35:35.835Z,32.25
2024-01-25T06:37:40.676Z,25.10
2024-01-25T06:38:43.648Z,30.80
2024-01-25T06:39:46.300Z,33.10
2024-01-25T06:40:48.891Z,29.85
2024-01-25T06:41:51.307Z,29.92
2024-01-25T06:43:56.627Z,30.20
2024-01-25T06:44:59.088Z,30.23
2024-01-25T06:46:01.593Z,30.02
2024-01-25T06:48:08.231Z,28.00
2024-01-25T06:49:10.784Z,28.40
2024-01-25T06:50:13.385Z,30.33
2024-01-25T06:51:16.856Z,33.45
2024-01-25T06:52:20.677Z,27.65
2024-01-25T06:53:24.564Z,27.25
2024-01-25T06:54:27.146Z,31.13
2024-01-25T06:55:29.938Z,28.33
2024-01-25T06:56:32.772Z,32.95
2024-01-25T06:57:35.198Z,34.05
2024-01-25T06:58:37.809Z,34.63
2024-01-25T06:59:41.641Z,31.10
2024-01-25T07:00:44.525Z,32.75
2024-01-25T07:01:47.568Z,29.48
2024-01-25T07:03:53.729Z,31.40
2024-01-25T07:04:57.157Z,33.53
2024-01-25T07:05:59.950Z,31.80
2024-01-25T07:07:02.639Z,31.63
2024-01-25T07:08:06.334Z,33.55
2024-01-25T07:09:09.039Z,35.30
2024-01-25T07:10:11.450Z,29.15
2024-01-25T07:11:14.028Z,32.08
2024-01-25T07:12:17.244Z,27.65
2024-01-25T07:13:20.161Z,29.75
2024-01-25T07:14:25.883Z,28.90
2024-01-25T07:15:28.710Z,32.40
2024-01-25T07:17:34.779Z,25.20
2024-01-25T07:18:37.324Z,27.65
2024-01-25T07:19:40.043Z,30.33
2024-01-25T07:20:43.105Z,28.63
2024-01-25T07:21:47.325Z,28.70
2024-01-25T07:22:49.816Z,25.67
2024-01-25T07:23:55.936Z,32.30
2024-01-25T07:25:06.930Z,31.40
2024-01-25T07:28:38.488Z,24.95
2024-01-25T07:29:41.660Z,25.80
2024-01-25T07:30:44.578Z,28.00
2024-01-25T07:31:47.480Z,29.88
2024-01-25T07:32:51.430Z,28.67
2024-01-25T07:33:55.479Z,30.33
2024-01-25T07:35:38.588Z,31.08
2024-01-25T07:36:43.253Z,28.83
2024-01-25T07:37:46.419Z,32.28
2024-01-25T07:38:49.760Z,29.15
2024-01-25T07:39:52.113Z,29.25
2024-01-25T07:40:54.601Z,30.25
2024-01-25T07:41:57.501Z,28.27
2024-01-25T07:42:59.943Z,29.52
2024-01-25T07:44:03.926Z,30.60
2024-01-25T07:45:06.871Z,28.63
2024-01-25T07:46:10.079Z,30.90
2024-01-25T07:47:12.626Z,29.60
2024-01-25T07:48:16.034Z,33.28
2024-01-25T07:49:19.040Z,29.70
2024-01-25T07:50:22.573Z,33.25
2024-01-25T07:51:29.798Z,34.22
2024-01-25T07:52:33.036Z,29.23
2024-01-25T07:53:36.239Z,30.67
2024-01-25T07:54:39.439Z,32.22
2024-01-25T07:55:41.944Z,28.45
2024-01-25T07:56:44.694Z,33.55
2024-01-25T07:58:50.854Z,30.05
2024-01-25T07:59:53.494Z,30.73
2024-01-25T08:00:56.136Z,35.22
2024-01-25T08:03:02.083Z,28.85
2024-01-25T08:04:05.097Z,31.80
2024-01-25T08:06:10.206Z,33.63
2024-01-25T08:07:15.408Z,20.25
2024-01-25T08:08:19.073Z,33.45
2024-01-25T08:09:36.775Z,32.75
2024-01-25T08:10:57.549Z,26.48
2024-01-25T08:12:16.850Z,33.45
2024-01-25T08:13:40.045Z,33.70
2024-01-25T08:14:46.976Z,32.95
2024-01-25T08:15:59.055Z,31.08
2024-01-25T08:17:25.537Z,31.70
2024-01-25T08:18:56.466Z,31.63
2024-01-25T08:20:06.798Z,37.08
2024-01-25T08:21:24.303Z,31.08
2024-01-25T08:22:29.266Z,40.75
2024-01-25T08:25:46.398Z,27.80
2024-01-25T08:27:00.551Z,31.38
2024-01-25T08:28:17.146Z,26.33
2024-01-25T08:29:26.706Z,31.45
2024-01-25T08:30:43.833Z,30.83
2024-01-25T08:31:48.223Z,34.70
2024-01-25T08:32:56.544Z,35.20
2024-01-25T08:34:02.722Z,36.50
2024-01-25T08:35:35.808Z,33.72
2024-01-25T08:36:38.757Z,35.47
2024-01-25T08:37:44.467Z,34.45
2024-01-25T08:38:47.241Z,32.67
2024-01-25T08:39:51.728Z,34.05
2024-01-25T08:40:54.612Z,37.13
2024-01-25T08:43:06.368Z,31.13
2024-01-25T08:44:08.971Z,35.38
2024-01-25T08:45:14.138Z,32.90
2024-01-25T08:46:18.618Z,32.20
2024-01-25T08:48:24.167Z,30.17
2024-01-25T08:49:26.720Z,28.52
2024-01-25T08:50:29.856Z,35.05
2024-01-25T08:51:32.540Z,34.67
2024-01-25T08:52:35.291Z,30.48
2024-01-25T08:53:38.206Z,31.17
2024-01-25T08:54:41.902Z,32.53
2024-01-25T08:55:44.350Z,33.08
2024-01-25T08:56:46.835Z,33.97
2024-01-25T08:58:54.055Z,28.45
2024-01-25T08:59:56.703Z,30.42
2024-01-25T09:00:59.396Z,30.05
2024-01-25T09:02:02.159Z,31.80
2024-01-25T09:03:05.268Z,31.38
2024-01-25T09:04:07.996Z,31.30
2024-01-25T09:05:13.529Z,32.50
2024-01-25T09:06:16.906Z,27.83
2024-01-25T09:07:19.882Z,35.15
2024-01-25T09:08:22.887Z,31.00
2024-01-25T09:10:27.856Z,30.83
2024-01-25T09:12:32.797Z,43.78
2024-01-25T09:13:45.366Z,29.98
2024-01-25T09:14:48.786Z,39.88
2024-01-25T09:16:54.356Z,34.67
2024-01-25T09:17:56.708Z,34.92
2024-01-25T09:18:59.276Z,35.30
2024-01-25T09:20:04.908Z,40.17
2024-01-25T09:21:07.778Z,38.88
2024-01-25T09:22:11.422Z,38.03
2024-01-25T09:23:13.845Z,34.80
2024-01-25T09:24:16.684Z,40.88
2024-01-25T09:25:19.694Z,35.78
2024-01-25T09:26:22.341Z,38.08
2024-01-25T09:27:24.771Z,30.83
2024-01-25T09:29:33.147Z,39.00
2024-01-25T09:30:35.937Z,34.50
2024-01-25T09:31:38.481Z,37.53
2024-01-25T09:32:41.764Z,37.35
2024-01-25T09:33:44.391Z,38.33
2024-01-25T09:34:47.367Z,35.65
2024-01-25T09:35:50.275Z,36.05
2024-01-25T09:36:54.346Z,33.38
2024-01-25T09:37:57.212Z,36.17
2024-01-25T09:39:00.108Z,34.92
2024-01-25T09:41:05.889Z,36.47
2024-01-25T09:42:11.819Z,38.20
2024-01-25T09:43:23.998Z,34.60
2024-01-25T09:44:26.699Z,33.08
2024-01-25T09:45:32.377Z,34.25
2024-01-25T09:46:35.432Z,33.13
2024-01-25T09:47:37.941Z,32.25
2024-01-25T09:48:41.991Z,37.00
2024-01-25T09:49:46.948Z,27.75
2024-01-25T09:50:50.324Z,30.80
2024-01-25T09:51:53.562Z,34.60
2024-01-25T09:52:57.970Z,32.28
2024-01-25T09:54:02.151Z,40.50
2024-01-25T09:55:08.381Z,31.48
2024-01-25T09:56:14.592Z,29.27
2024-01-25T09:57:28.243Z,32.05
2024-01-25T09:58:39.297Z,33.35
2024-01-25T09:59:43.323Z,33.75
2024-01-25T10:00:46.023Z,35.47
2024-01-25T10:01:50.204Z,31.17
2024-01-25T10:02:53.044Z,27.83
2024-01-25T10:03:59.120Z,28.75
2024-01-25T10:05:01.973Z,33.17
2024-01-25T10:06:07.261Z,36.20
2024-01-25T10:07:25.657Z,34.25
2024-01-25T10:08:28.384Z,32.42
2024-01-25T10:09:41.268Z,39.25
2024-01-25T10:10:46.080Z,29.10
2024-01-25T10:12:57.310Z,34.28
2024-01-25T10:14:02.369Z,30.67
2024-01-25T10:15:06.888Z,26.67
2024-01-25T10:16:17.262Z,28.92
2024-01-25T10:17:52.188Z,22.90
2024-01-25T10:18:55.370Z,27.50
2024-01-25T10:20:08.766Z,27.60
2024-01-25T10:21:12.478Z,28.15
2024-01-25T10:22:16.464Z,29.30
2024-01-25T10:23:20.255Z,25.25
2024-01-25T10:24:26.206Z,22.05
2024-01-25T10:25:29.391Z,22.85
2024-01-25T10:26:33.434Z,26.55
2024-01-25T10:27:36.757Z,21.40
2024-01-25T10:28:40.081Z,24.02
2024-01-25T10:29:42.820Z,24.10
2024-01-25T10:30:45.544Z,32.25
2024-01-25T10:31:48.859Z,22.10
2024-01-25T10:32:52.592Z,25.00
2024-01-25T10:33:56.218Z,29.65
2024-01-25T10:35:00.484Z,24.95
2024-01-25T10:36:04.433Z,26.85
2024-01-25T10:37:09.292Z,22.23
2024-01-25T10:38:13.459Z,27.05
2024-01-25T10:39:17.391Z,27.70
2024-01-25T10:40:21.764Z,26.30
2024-01-25T10:41:28.422Z,23.20
2024-01-25T10:42:32.507Z,24.58
2024-01-25T10:43:35.812Z,19.73
2024-01-25T10:44:39.425Z,20.40
2024-01-25T10:45:41.991Z,18.05
2024-01-25T10:46:48.226Z,19.65
2024-01-25T10:47:51.324Z,19.67
2024-01-25T10:48:58.872Z,18.60
2024-01-25T10:50:04.122Z,15.90
2024-01-25T10:51:07.171Z,18.63
2024-01-25T10:52:11.213Z,19.00
2024-01-25T10:53:14.222Z,19.02
2024-01-25T10:54:17.532Z,15.20
2024-01-25T10:55:21.184Z,20.75
2024-01-25T10:56:23.796Z,18.13
2024-01-25T10:57:26.522Z,18.17
2024-01-25T10:58:37.557Z,18.88
2024-01-25T10:59:41.002Z,26.00
2024-01-25T11:00:50.624Z,20.27
2024-01-25T11:01:56.266Z,18.48
2024-01-25T11:02:58.965Z,21.00
2024-01-25T11:04:01.504Z,18.67
2024-01-25T11:05:10.056Z,21.77
2024-01-25T11:06:13.892Z,20.15
2024-01-25T11:07:16.886Z,17.42
2024-01-25T11:08:20.928Z,16.35
2024-01-25T11:09:23.442Z,18.38
2024-01-25T11:10:28.630Z,14.85
2024-01-25T11:11:33.047Z,14.70
2024-01-25T11:12:37.196Z,14.18
2024-01-25T11:13:41.923Z,16.30
2024-01-25T11:14:44.983Z,17.92
2024-01-25T11:16:50.598Z,12.75
2024-01-25T11:17:56.233Z,13.70
2024-01-25T11:19:07.171Z,13.75
2024-01-25T11:20:15.715Z,15.05
2024-01-25T11:21:41.266Z,13.52
2024-01-25T11:22:47.631Z,17.85
2024-01-25T11:23:51.668Z,16.25
2024-01-25T11:24:55.310Z,16.00
2024-01-25T11:25:58.024Z,15.05
2024-01-25T11:27:02.316Z,13.27
2024-01-25T11:28:06.908Z,20.92
2024-01-25T11:29:09.960Z,19.50
2024-01-25T11:30:14.804Z,14.15
2024-01-25T11:31:17.123Z,15.20
2024-01-25T11:32:19.949Z,14.68
2024-01-25T11:33:23.360Z,14.15
2024-01-25T11:34:26.464Z,12.82
2024-01-25T11:35:32.961Z,11.75
2024-01-25T11:36:37.390Z,12.57
2024-01-25T11:37:40.523Z,14.80
2024-01-25T11:38:42.869Z,16.80
2024-01-25T11:39:45.380Z,15.43
2024-01-25T11:40:47.694Z,17.98
2024-01-25T11:41:52.956Z,15.55
2024-01-25T11:42:55.568Z,15.05
2024-01-25T11:43:58.422Z,15.50
2024-01-25T11:45:00.783Z,17.15
2024-01-25T11:47:06.460Z,12.57
2024-01-25T11:48:09.096Z,9.82
2024-01-25T11:49:12.113Z,11.25
2024-01-25T11:50:15.512Z,12.82
2024-01-25T11:51:22.211Z,10.27
2024-01-25T11:52:24.830Z,15.00
2024-01-25T11:53:27.292Z,14.38
2024-01-25T11:54:30.024Z,13.80
2024-01-25T11:55:32.803Z,15.02
2024-01-25T11:56:39.821Z,13.00
2024-01-25T11:57:43.123Z,14.93
2024-01-25T11:58:47.418Z,15.93
2024-01-25T11:59:50.938Z,16.83
2024-01-25T12:00:55.262Z,13.15
2024-01-25T12:01:58.221Z,22.25
2024-01-25T12:03:01.158Z,18.30
2024-01-25T12:04:04.275Z,14.90
2024-01-25T12:05:07.569Z,17.10
2024-01-25T12:06:11.302Z,17.80
2024-01-25T12:07:16.486Z,15.57
2024-01-25T12:08:19.215Z,18.17
2024-01-25T12:09:24.507Z,19.23
2024-01-25T12:10:27.626Z,18.15
2024-01-25T12:11:30.015Z,21.40
2024-01-25T12:12:32.683Z,17.42
2024-01-25T12:13:40.912Z,19.70
2024-01-25T12:14:43.680Z,16.88
2024-01-25T12:15:47.561Z,17.80
2024-01-25T12:16:50.109Z,16.65
2024-01-25T12:17:52.783Z,17.52
2024-01-25T12:18:55.972Z,18.13
2024-01-25T12:21:02.538Z,15.27
2024-01-25T12:22:05.062Z,16.33
2024-01-25T12:23:09.938Z,15.07
2024-01-25T12:24:12.498Z,17.42
2024-01-25T12:25:15.200Z,17.00
2024-01-25T12:27:24.587Z,17.05
2024-01-25T12:28:31.337Z,15.25
2024-01-25T12:29:34.817Z,15.32
2024-01-25T12:30:37.256Z,18.55
2024-01-25T12:31:40.112Z,9.77
2024-01-25T12:32:42.714Z,14.50
2024-01-25T12:33:45.480Z,16.05
2024-01-25T12:36:10.156Z,13.75
2024-01-25T12:38:14.913Z,12.35
2024-01-25T12:39:19.356Z,12.43
2024-01-25T12:40:23.803Z,14.27
2024-01-25T12:41:26.355Z,10.80
2024-01-25T12:42:29.089Z,14.15
2024-01-25T12:44:36.391Z,11.75
2024-01-25T12:45:39.488Z,14.73
2024-01-25T12:46:42.353Z,13.13
2024-01-25T12:47:44.734Z,13.48
2024-01-25T12:48:48.526Z,12.60
2024-01-25T12:49:51.351Z,12.57
2024-01-25T12:50:54.287Z,10.13
2024-01-25T12:51:57.135Z,14.93
2024-01-25T12:53:03.170Z,12.52
2024-01-25T12:54:06.644Z,14.05
2024-01-25T12:55:09.736Z,12.68
2024-01-25T12:56:13.406Z,12.93
2024-01-25T12:58:18.821Z,9.93
2024-01-25T12:59:21.430Z,12.65
2024-01-25T13:00:24.349Z,15.20
2024-01-25T13:01:27.753Z,17.33
2024-01-25T13:02:30.102Z,12.02
2024-01-25T13:03:32.826Z,14.73
2024-01-25T13:04:35.525Z,15.10
2024-01-25T13:05:40.476Z,12.93
2024-01-25T13:06:43.106Z,10.43
2024-01-25T13:07:45.815Z,13.30
2024-01-25T13:08:48.273Z,14.70
2024-01-25T13:09:51.323Z,12.57
2024-01-25T13:10:53.746Z,10.30
2024-01-25T13:11:56.205Z,12.75
2024-01-25T13:13:02.061Z,11.82
2024-01-25T13:14:04.993Z,18.58
2024-01-25T13:15:08.653Z,12.43
2024-01-25T13:16:11.125Z,11.77
2024-01-25T13:17:13.565Z,12.63
2024-01-25T13:18:16.302Z,12.15
2024-01-25T13:19:19.444Z,12.32
2024-01-25T13:20:21.891Z,13.60
2024-01-25T13:21:24.441Z,10.98
2024-01-25T13:23:29.768Z,10.98
2024-01-25T13:24:32.846Z,11.43
2024-01-25T13:25:35.283Z,12.20
2024-01-25T13:27:40.624Z,10.63
2024-01-25T13:28:42.960Z,14.43
2024-01-25T13:29:45.440Z,12.05
2024-01-25T13:30:48.192Z,8.45
2024-01-25T13:31:50.657Z,13.88
2024-01-25T13:32:53.205Z,12.35
2024-01-25T13:33:55.900Z,13.52
2024-01-25T13:35:02.302Z,13.32
2024-01-25T13:37:12.478Z,10.30
2024-01-25T13:38:16.138Z,9.40
2024-01-25T13:39:18.847Z,8.18
2024-01-25T13:40:21.710Z,9.45
2024-01-25T13:41:24.218Z,8.68
2024-01-25T13:42:26.609Z,9.68
2024-01-25T13:43:29.322Z,9.32
2024-01-25T13:44:35.853Z,9.52
2024-01-25T13:45:44.199Z,10.45
2024-01-25T13:46:46.732Z,10.93
2024-01-25T13:48:51.807Z,10.00
2024-01-25T13:49:54.643Z,6.53
2024-01-25T13:50:56.877Z,7.78
2024-01-25T13:52:03.165Z,10.30
2024-01-25T13:53:05.665Z,14.02
2024-01-25T13:54:08.043Z,8.98
2024-01-25T13:55:10.413Z,10.32
2024-01-25T13:57:16.228Z,8.85
2024-01-25T13:59:21.237Z,17.15
2024-01-25T14:00:24.393Z,11.45
2024-01-25T14:01:27.082Z,9.77
2024-01-25T14:02:31.360Z,8.15
2024-01-25T14:03:33.891Z,14.57
2024-01-25T14:04:37.010Z,11.25
2024-01-25T14:06:42.638Z,8.43
2024-01-25T14:07:45.303Z,8.77
2024-01-25T14:08:48.618Z,9.20
2024-01-25T14:09:52.696Z,9.18
2024-01-25T14:10:55.735Z,7.70
2024-01-25T14:11:58.646Z,14.40
2024-01-25T14:13:02.432Z,9.32
2024-01-25T14:14:04.823Z,10.43
2024-01-25T14:15:10.079Z,8.80
2024-01-25T14:16:18.524Z,7.70
2024-01-25T14:17:23.302Z,12.32
2024-01-25T14:18:28.455Z,5.70
2024-01-25T14:19:31.594Z,8.45
2024-01-25T14:20:35.240Z,7.28
2024-01-25T14:21:38.221Z,6.68
2024-01-25T14:22:43.950Z,5.93
2024-01-25T14:23:46.606Z,6.10
2024-01-25T14:24:49.691Z,7.38
2024-01-25T14:25:52.772Z,8.68
2024-01-25T14:26:55.195Z,6.82
2024-01-25T14:27:58.746Z,5.72
2024-01-25T14:29:01.733Z,6.18
2024-01-25T14:31:07.966Z,11.50
2024-01-25T14:32:10.893Z,11.10
2024-01-25T14:33:14.666Z,4.43
2024-01-25T14:34:19.469Z,7.57
2024-01-25T14:35:21.929Z,5.90
2024-01-25T14:36:24.615Z,9.13
2024-01-25T14:37:26.960Z,7.68
2024-01-25T14:38:29.789Z,9.27
2024-01-25T14:39:32.417Z,6.28
2024-01-25T14:41:51.703Z,4.72
2024-01-25T14:42:55.112Z,6.43
2024-01-25T14:43:57.687Z,8.85
2024-01-25T14:45:00.037Z,6.78
2024-01-25T14:46:02.481Z,7.32
2024-01-25T14:48:08.229Z,6.72
2024-01-25T14:49:10.641Z,9.98
2024-01-25T14:50:13.205Z,6.18
2024-01-25T14:52:19.180Z,4.82
2024-01-25T14:53:21.593Z,6.80
2024-01-25T14:54:24.003Z,5.20
2024-01-25T14:55:29.974Z,6.38
2024-01-25T14:56:32.539Z,6.97
2024-01-25T14:57:35.321Z,7.50
2024-01-25T14:58:38.102Z,9.15